Main page
METAR-TAF:

METAR-TAF

Airports :

Fairford, England

RAF Fairford

latitude: 51-41N, longitude: 001-47W, elevation: 87 m

Current weather observation

The report was made 18 minutes ago, at 06:58 UTC
Wind 8 kt from the East
Temperature 16°C
Humidity 77%
Pressure 1019 hPa
Visibility 10 km or more
Clear sky

METAR: EGVA 260658Z AUTO 08008KT 9999 CLR 16/12 A3009 RMK AO2 SLP191 T01550115 $

Time: 08:16 (07:16 UTC)


TAF: missing

Weather observations and forecasts of more than 4000 airports (METAR and TAF reports).

The available stations are represented by yellow and red dots on the map.

Hover mouse over dot to see the name of the station.

Then click to see weather observations and forecasts.

To change the map : click on the green buttons with a black cross to zoom in, on the green button with a dash to zoom out, or on the green arrows for adjacent maps.


METAR-TAF: